createdAt,value
2018-09-21T00:01:37.466Z,24.30
2018-09-21T00:04:18.437Z,24.30
2018-09-21T01:32:06.948Z,22.60
2018-09-21T01:40:31.052Z,22.90
2018-09-21T01:43:13.483Z,23.10
2018-09-21T01:45:54.776Z,23.20
2018-09-21T01:51:27.609Z,23.40
2018-09-21T01:54:16.179Z,23.40
2018-09-21T01:56:48.363Z,23.40
2018-09-21T01:59:17.279Z,23.50
2018-09-21T02:01:45.921Z,23.60
2018-09-21T02:04:14.541Z,23.60
2018-09-21T02:11:39.627Z,23.80
2018-09-21T02:14:08.450Z,23.80
2018-09-21T02:16:37.116Z,23.80
2018-09-21T02:19:05.668Z,23.80
2018-09-21T02:21:34.276Z,23.80
2018-09-21T02:24:04.943Z,23.80
2018-09-21T02:29:03.029Z,23.80
2018-09-21T02:31:32.363Z,23.80
2018-09-21T02:34:03.198Z,23.80
2018-09-21T02:36:31.852Z,23.80
2018-09-21T02:39:00.367Z,23.80
2018-09-21T02:41:39.040Z,23.80
2018-09-21T02:44:07.632Z,23.80
2018-09-21T02:46:42.034Z,23.80
2018-09-21T02:49:12.561Z,23.80
2018-09-21T02:51:48.632Z,23.80
2018-09-21T03:03:10.330Z,23.90
2018-09-21T03:05:58.669Z,23.90
2018-09-21T03:20:00.018Z,24.00
2018-09-21T04:13:26.806Z,23.60
2018-09-21T04:25:40.555Z,24.10
2018-09-21T04:28:45.174Z,24.10
2018-09-21T05:20:53.904Z,24.70
2018-09-21T05:25:53.302Z,24.60
2018-09-21T05:28:21.871Z,24.70
2018-09-21T05:30:52.115Z,24.70
2018-09-21T05:36:00.475Z,24.90
2018-09-21T05:44:13.085Z,24.90
2018-09-21T05:46:42.477Z,24.60
2018-09-21T05:49:15.524Z,24.60
2018-09-21T05:51:44.767Z,24.50
2018-09-21T05:54:13.809Z,24.60
2018-09-21T05:56:44.422Z,24.70
2018-09-21T05:59:13.650Z,24.80
2018-09-21T06:01:43.379Z,24.80
2018-09-21T06:06:41.834Z,24.90
2018-09-21T06:11:50.872Z,25.00
2018-09-21T06:14:20.731Z,25.10
2018-09-21T06:16:50.236Z,25.10
2018-09-21T06:19:19.492Z,25.10
2018-09-21T06:21:48.831Z,25.20
2018-09-21T06:24:18.469Z,25.20
2018-09-21T06:26:48.843Z,25.20
2018-09-21T06:29:19.203Z,25.20
2018-09-21T06:31:49.899Z,25.20
2018-09-21T06:34:20.142Z,25.20
2018-09-21T06:36:49.813Z,25.20
2018-09-21T06:39:19.646Z,25.20
2018-09-21T06:41:49.699Z,25.30
2018-09-21T06:44:20.581Z,25.40
2018-09-21T06:46:50.263Z,25.30
2018-09-21T06:49:20.013Z,25.30
2018-09-21T06:51:57.606Z,25.30
2018-09-21T06:54:27.981Z,25.30
2018-09-21T06:59:27.098Z,25.20
2018-09-21T07:01:56.396Z,25.30
2018-09-21T07:04:25.836Z,25.30
2018-09-21T07:06:55.173Z,25.30
2018-09-21T07:09:24.806Z,25.30
2018-09-21T07:11:54.774Z,25.30
2018-09-21T07:14:23.681Z,25.40
2018-09-21T07:16:52.909Z,25.40
2018-09-21T07:19:21.795Z,25.40
2018-09-21T07:21:50.925Z,25.40
2018-09-21T07:24:19.992Z,25.50
2018-09-21T07:26:48.958Z,25.50
2018-09-21T07:29:17.918Z,25.60
2018-09-21T07:31:46.862Z,25.50
2018-09-21T07:34:16.465Z,25.60
2018-09-21T07:36:45.782Z,25.60
2018-09-21T07:41:44.270Z,25.60
2018-09-21T07:44:13.293Z,25.60
2018-09-21T07:46:42.192Z,25.60
2018-09-21T07:49:11.134Z,25.60
2018-09-21T07:51:40.059Z,25.60
2018-09-21T07:54:09.088Z,25.60
2018-09-21T07:56:38.526Z,25.60
2018-09-21T07:59:07.773Z,25.60
2018-09-21T08:01:36.867Z,25.60
2018-09-21T08:04:05.799Z,25.60
2018-09-21T08:09:38.959Z,25.70
2018-09-21T08:12:07.676Z,25.70
2018-09-21T08:14:36.599Z,25.70
2018-09-21T08:17:06.531Z,25.70
2018-09-21T08:19:36.633Z,25.70
2018-09-21T08:22:08.439Z,25.70
2018-09-21T08:24:38.138Z,25.70
2018-09-21T08:27:09.855Z,25.70
2018-09-21T08:29:40.988Z,25.80
2018-09-21T08:32:10.355Z,25.90
2018-09-21T08:34:39.003Z,25.90
2018-09-21T08:39:35.721Z,25.90
2018-09-21T08:42:04.293Z,25.90
2018-09-21T08:44:32.763Z,25.90
2018-09-21T08:47:01.294Z,25.90
2018-09-21T08:49:29.832Z,25.90
2018-09-21T08:51:58.420Z,25.80
2018-09-21T08:54:26.900Z,25.70
2018-09-21T08:56:55.544Z,25.60
2018-09-21T08:59:24.002Z,25.60
2018-09-21T09:01:52.535Z,25.60
2018-09-21T09:04:21.307Z,25.50
2018-09-21T09:06:49.950Z,25.50
2018-09-21T09:09:18.441Z,25.40
2018-09-21T09:11:47.055Z,25.00
2018-09-21T09:14:15.506Z,24.30
2018-09-21T09:16:44.004Z,23.70
2018-09-21T09:19:12.495Z,23.10
2018-09-21T09:21:41.071Z,22.60
2018-09-21T09:24:10.140Z,22.30
2018-09-21T09:26:40.892Z,22.00
2018-09-21T09:29:09.459Z,21.80
2018-09-21T09:34:06.318Z,21.50
2018-09-21T09:36:34.852Z,21.50
2018-09-21T09:39:04.836Z,21.50
2018-09-21T09:41:33.419Z,21.60
2018-09-21T09:44:01.988Z,21.60
2018-09-21T09:53:55.110Z,21.70
2018-09-21T09:56:23.720Z,21.60
2018-09-21T09:58:52.177Z,21.50
2018-09-21T10:01:20.728Z,21.40
2018-09-21T10:03:49.288Z,21.40
2018-09-21T10:06:17.770Z,21.40
2018-09-21T10:08:46.317Z,21.30
2018-09-21T10:11:14.793Z,21.30
2018-09-21T10:13:45.628Z,21.30
2018-09-21T10:22:08.948Z,21.50
2018-09-21T10:25:10.883Z,21.50
2018-09-21T10:40:26.295Z,21.30
2018-09-21T10:46:22.700Z,20.70
2018-09-21T11:06:03.906Z,21.10
2018-09-21T11:08:38.426Z,20.80
2018-09-21T11:11:08.307Z,21.00
2018-09-21T11:13:40.254Z,21.20
2018-09-21T11:16:10.186Z,21.30
2018-09-21T11:19:01.746Z,21.50
2018-09-21T11:21:35.136Z,21.70
2018-09-21T11:24:05.362Z,21.90
2018-09-21T11:26:36.833Z,22.10
2018-09-21T11:29:09.030Z,22.30
2018-09-21T11:31:40.870Z,22.40
2018-09-21T11:34:17.182Z,22.50
2018-09-21T11:36:56.311Z,22.70
2018-09-21T11:39:32.099Z,22.80
2018-09-21T11:42:09.332Z,22.90
2018-09-21T11:44:41.214Z,23.10
2018-09-21T11:47:11.078Z,23.20
2018-09-21T11:52:11.554Z,23.60
2018-09-21T11:54:41.615Z,23.70
2018-09-21T11:57:13.048Z,23.80
2018-09-21T11:59:43.570Z,23.90
2018-09-21T12:02:15.385Z,24.10
2018-09-21T12:04:44.126Z,24.10
2018-09-21T12:07:13.357Z,24.10
2018-09-21T12:09:42.108Z,24.10
2018-09-21T12:12:11.191Z,24.20
2018-09-21T12:14:40.104Z,24.10
2018-09-21T12:17:10.531Z,23.80
2018-09-21T12:19:41.330Z,23.60
2018-09-21T12:22:21.267Z,23.30
2018-09-21T12:24:49.770Z,23.00
2018-09-21T12:27:19.639Z,22.80
2018-09-21T12:29:48.131Z,22.50
2018-09-21T12:32:16.667Z,22.40
2018-09-21T12:34:45.210Z,22.30
2018-09-21T12:37:14.377Z,22.30
2018-09-21T12:39:44.550Z,22.40
2018-09-21T12:42:14.335Z,22.40
2018-09-21T12:47:14.669Z,22.60
2018-09-21T12:50:13.502Z,22.80
2018-09-21T12:52:53.215Z,23.00
2018-09-21T12:55:33.143Z,23.10
2018-09-21T12:58:02.084Z,23.00
2018-09-21T13:00:39.626Z,23.00
2018-09-21T14:19:04.920Z,21.20
2018-09-21T14:26:30.703Z,22.40
2018-09-21T14:28:59.848Z,22.60
2018-09-21T14:31:28.986Z,22.80
2018-09-21T14:33:57.636Z,23.00
2018-09-21T14:41:27.163Z,23.20
2018-09-21T14:43:55.788Z,23.10
2018-09-21T14:46:27.882Z,22.80
2018-09-21T14:48:56.416Z,22.70
2018-09-21T14:53:54.117Z,22.70
2018-09-21T14:56:22.613Z,22.70
2018-09-21T14:58:51.183Z,22.70
2018-09-21T15:01:19.749Z,22.60
2018-09-21T15:03:48.411Z,22.50
2018-09-21T15:06:16.941Z,22.30
2018-09-21T15:08:46.446Z,22.10
2018-09-21T15:11:15.144Z,22.00
2018-09-21T15:13:43.852Z,21.80
2018-09-21T15:16:12.415Z,21.70
2018-09-21T15:18:40.916Z,21.70
2018-09-21T15:21:09.464Z,21.70
2018-09-21T15:23:38.108Z,21.70
2018-09-21T15:26:06.736Z,21.70
2018-09-21T15:28:35.277Z,21.80
2018-09-21T15:33:33.133Z,22.20
2018-09-21T15:36:01.932Z,22.20
2018-09-21T15:38:31.384Z,22.30
2018-09-21T15:41:00.021Z,22.30
2018-09-21T15:45:57.236Z,22.50
2018-09-21T15:48:25.744Z,22.60
2018-09-21T15:50:56.124Z,22.50
2018-09-21T15:53:24.762Z,22.50
2018-09-21T15:55:53.302Z,22.60
2018-09-21T15:58:21.854Z,22.60
2018-09-21T16:00:50.380Z,22.40
2018-09-21T16:03:19.838Z,22.30
2018-09-21T16:05:48.352Z,22.30
2018-09-21T16:08:17.317Z,22.40
2018-09-21T16:13:14.174Z,22.20
2018-09-21T16:15:42.795Z,22.10
2018-09-21T16:18:11.324Z,21.90
2018-09-21T16:20:40.005Z,21.90
2018-09-21T16:25:39.177Z,21.90
2018-09-21T16:28:08.769Z,21.90
2018-09-21T16:30:37.305Z,21.80
2018-09-21T16:35:34.036Z,21.70
2018-09-21T16:38:03.555Z,21.70
2018-09-21T16:40:32.121Z,21.70
2018-09-21T16:43:00.746Z,21.60
2018-09-21T16:45:29.312Z,21.50
2018-09-21T16:47:58.524Z,21.40
2018-09-21T16:52:55.152Z,21.20
2018-09-21T16:55:23.714Z,21.10
2018-09-21T16:57:52.222Z,21.10
2018-09-21T17:00:20.786Z,21.10
2018-09-21T17:02:49.320Z,21.10
2018-09-21T17:05:17.983Z,21.10
2018-09-21T17:10:14.723Z,21.10
2018-09-21T17:12:43.284Z,21.00
2018-09-21T17:15:11.854Z,21.00
2018-09-21T17:17:40.383Z,20.90
2018-09-21T17:22:38.134Z,20.90
2018-09-21T17:25:07.124Z,20.90
2018-09-21T17:27:35.673Z,20.90
2018-09-21T17:30:04.273Z,20.90
2018-09-21T17:32:32.895Z,20.80
2018-09-21T17:35:01.386Z,20.80
2018-09-21T17:42:26.481Z,20.70
2018-09-21T17:44:55.068Z,20.70
2018-09-21T17:47:23.734Z,20.70
2018-09-21T17:49:52.348Z,20.70
2018-09-21T17:52:21.307Z,20.60
2018-09-21T17:54:49.843Z,20.60
2018-09-21T17:57:18.368Z,20.50
2018-09-21T17:59:46.897Z,20.50
2018-09-21T18:02:15.468Z,20.60
2018-09-21T18:04:44.032Z,20.60
2018-09-21T18:07:21.944Z,20.50
2018-09-21T18:09:52.204Z,20.50
2018-09-21T18:17:17.716Z,20.50
2018-09-21T18:19:46.880Z,20.50
2018-09-21T18:22:15.376Z,20.50
2018-09-21T18:24:43.985Z,20.50
2018-09-21T18:27:12.518Z,20.50
2018-09-21T18:29:41.363Z,20.50
2018-09-21T18:32:09.836Z,20.50
2018-09-21T18:34:38.440Z,20.50
2018-09-21T18:39:35.291Z,20.40
2018-09-21T18:42:03.892Z,20.40
2018-09-21T18:44:32.401Z,20.40
2018-09-21T18:47:00.905Z,20.40
2018-09-21T18:49:29.352Z,20.40
2018-09-21T18:51:57.880Z,20.40
2018-09-21T18:54:26.351Z,20.30
2018-09-21T18:56:54.920Z,20.30
2018-09-21T18:59:23.492Z,20.30
2018-09-21T19:01:52.021Z,20.20
2018-09-21T19:04:20.572Z,20.10
2018-09-21T19:06:49.117Z,20.10
2018-09-21T19:09:18.737Z,20.10
2018-09-21T19:11:47.282Z,20.00
2018-09-21T19:14:15.839Z,20.00
2018-09-21T19:16:44.283Z,20.00
2018-09-21T19:19:12.857Z,20.00
2018-09-21T19:21:41.349Z,20.00
2018-09-21T19:24:09.852Z,20.00
2018-09-21T19:26:38.512Z,19.90
2018-09-21T19:29:07.008Z,19.90
2018-09-21T19:31:35.622Z,19.90
2018-09-21T19:34:04.236Z,19.90
2018-09-21T19:36:32.782Z,19.90
2018-09-21T19:39:01.386Z,19.90
2018-09-21T19:41:29.868Z,19.90
2018-09-21T19:43:58.377Z,19.90
2018-09-21T19:46:26.883Z,19.80
2018-09-21T19:48:55.397Z,19.80
2018-09-21T19:53:52.523Z,19.80
2018-09-21T19:56:21.134Z,19.80
2018-09-21T19:58:49.675Z,19.70
2018-09-21T20:01:18.269Z,19.70
2018-09-21T20:03:46.779Z,19.70
2018-09-21T20:06:15.345Z,19.70
2018-09-21T20:08:44.020Z,19.70
2018-09-21T20:11:12.661Z,19.80
2018-09-21T20:13:41.265Z,19.80
2018-09-21T20:16:09.893Z,19.80
2018-09-21T20:18:38.477Z,19.80
2018-09-21T20:21:07.067Z,19.70
2018-09-21T20:23:35.960Z,19.60
2018-09-21T20:28:32.876Z,19.60
2018-09-21T20:31:07.247Z,19.60
2018-09-21T20:33:37.199Z,19.60
2018-09-21T20:36:05.826Z,19.60
2018-09-21T20:38:47.675Z,19.60
2018-09-21T20:41:16.585Z,19.70
2018-09-21T20:43:45.148Z,19.60
2018-09-21T20:46:13.746Z,19.50
2018-09-21T20:48:42.299Z,19.50
2018-09-21T20:51:10.907Z,19.50
2018-09-21T20:53:39.502Z,19.50
2018-09-21T20:56:08.058Z,19.50
2018-09-21T20:58:36.722Z,19.50
2018-09-21T21:01:05.296Z,19.50
2018-09-21T21:06:02.107Z,19.40
2018-09-21T21:08:30.731Z,19.40
2018-09-21T21:13:27.508Z,19.40
2018-09-21T21:15:57.088Z,19.40
2018-09-21T21:18:25.596Z,19.40
2018-09-21T21:20:54.184Z,19.40
2018-09-21T21:23:23.109Z,19.30
2018-09-21T21:25:51.749Z,19.30
2018-09-21T21:28:20.333Z,19.30
2018-09-21T21:30:48.831Z,19.20
2018-09-21T21:33:17.427Z,19.20
2018-09-21T21:35:46.010Z,19.20
2018-09-21T21:38:14.636Z,19.10
2018-09-21T21:43:11.670Z,19.20
2018-09-21T21:45:40.239Z,19.10
2018-09-21T21:48:09.797Z,19.10
2018-09-21T21:50:38.359Z,19.10
2018-09-21T21:53:07.230Z,19.10
2018-09-21T21:55:35.888Z,19.10
2018-09-21T21:58:05.021Z,19.10
2018-09-21T22:00:40.143Z,19.10
2018-09-21T22:03:08.748Z,19.10
2018-09-21T22:05:37.294Z,19.00
2018-09-21T22:08:06.131Z,19.00
2018-09-21T22:10:34.719Z,19.00
2018-09-21T22:15:37.000Z,19.00
2018-09-21T22:18:05.639Z,18.90
2018-09-21T22:20:34.214Z,18.90
2018-09-21T22:23:02.956Z,18.80
2018-09-21T22:25:31.476Z,18.80
2018-09-21T22:28:00.063Z,18.80
2018-09-21T22:30:28.803Z,18.80
2018-09-21T22:35:25.839Z,18.80
2018-09-21T22:40:23.148Z,18.80
2018-09-21T22:42:51.720Z,18.80
2018-09-21T22:45:20.551Z,18.80
2018-09-21T22:47:49.203Z,18.80
2018-09-21T22:52:46.169Z,18.80
2018-09-21T22:55:14.674Z,18.80
2018-09-21T22:57:43.742Z,18.80
2018-09-21T23:02:40.535Z,18.80
2018-09-21T23:05:09.131Z,18.80
2018-09-21T23:07:37.711Z,18.80
2018-09-21T23:10:06.235Z,18.80
2018-09-21T23:12:34.735Z,18.80
2018-09-21T23:15:03.291Z,18.80
2018-09-21T23:17:31.832Z,18.70
2018-09-21T23:20:00.458Z,18.70
2018-09-21T23:22:29.007Z,18.70
2018-09-21T23:24:57.584Z,18.70
2018-09-21T23:27:26.109Z,18.70
2018-09-21T23:29:58.539Z,18.70
2018-09-21T23:32:27.244Z,18.70
2018-09-21T23:34:55.837Z,18.70
2018-09-21T23:37:24.456Z,18.70
2018-09-21T23:39:53.686Z,18.70
2018-09-21T23:42:22.567Z,18.70
2018-09-21T23:44:51.092Z,18.70
2018-09-21T23:47:19.724Z,18.70
2018-09-21T23:49:48.736Z,18.70
2018-09-21T23:52:17.471Z,18.70
2018-09-21T23:57:14.091Z,18.60
2018-09-21T23:59:42.564Z,18.70
